Weather observations for the past three days for
Litchfield Municipal Airport
Metric (Imperial)
Date Time (cdt) Wind (kph) Vis. (km) Weather Sky Cond. Temperature (ºC) Relative Humidity Wind Chill (°C) Heat Index (°C) Pressure Precipitation (cm)
Air Dwpt 6 hour altimeter (cm) sea level (mb) 1 hr 3 hr 6 hr
Max. Min.
31 08:35 S 11 16.09 Fair CLR 24.5 17 63% 26 76.35 0.0
31 08:15 S 7 16.09 Fair CLR 23.4 17.5 70% 76.35 0.0
31 07:55 S 7 16.09 Fair CLR 21.8 17.2 75% 76.35 0.0
31 07:35 S 7 16.09 Fair CLR 20.5 17.1 81% 76.33 0.0
31 07:15 S 6 16.09 Fair CLR 19 17 88% 76.3 0.0
31 06:55 S 7 16.09 Fair CLR 18 16.7 21.6 18 92% 76.3 0.0
31 06:35 S 7 16.09 Fair CLR 18.2 16.7 91% 76.3 0.0
31 06:15 S 9 16.09 Fair CLR 18.5 16.7 89% 76.28 0.0
31 05:55 S 9 16.09 Fair CLR 18.7 16.6 88% 76.28 0.0
31 05:35 S 9 16.09 Fair CLR 18.9 16.6 87% 76.28 0.0
31 05:15 S 7 16.09 Fair CLR 19 16.6 86% 76.28 0.0
31 04:55 S 9 16.09 Fair CLR 19.3 16.5 84% 76.28 0.0
31 04:35 S 9 16.09 Fair CLR 19.2 16.4 84% 76.28 0.0
31 04:15 S 7 16.09 Fair CLR 19 16.4 85% 76.28 0.0
31 03:55 S 7 16.09 Fair CLR 18.6 16.2 86% 76.28 0.0
31 03:35 S 6 16.09 Fair CLR 18.6 16.1 85% 76.28 0.0
31 03:15 S 7 16.09 Fair CLR 18.5 16.1 86% 76.25 0.0
31 02:55 S 7 16.09 Fair CLR 18.5 16.2 87% 76.25 0.0
31 02:35 S 7 16.09 Fair CLR 18.6 16.3 87% 76.25 0.0
31 02:15 S 9 16.09 Fair CLR 19.5 16 80% 76.28 0.0
31 01:55 S 9 16.09 Fair CLR 20.1 16 77% 76.28 0.0
31 01:35 S 9 16.09 Fair CLR 20.2 15.8 76% 76.28 0.0
31 01:15 SE 9 16.09 Fair CLR 21.3 15.6 70% 76.28 0.0
31 00:55 SE 9 16.09 Fair CLR 21.7 15.5 27.8 20.8 68% 76.28 0.0
31 00:35 SE 9 16.09 Fair CLR 21.2 15.5 70% 76.28 0.0
31 00:15 SE 7 16.09 Fair CLR 21.6 15.2 67% 76.28 0.0
30 23:55 SE 9 16.09 Fair CLR 22 15.2 65% 76.28 0.0
30 23:35 S 9 16.09 Fair CLR 22 15.1 65% 76.28 0.0
30 23:15 S 9 16.09 Fair CLR 21.3 15.4 69% 76.28 0.0
30 22:55 S 9 16.09 Fair CLR 21.9 15.4 67% 76.28 0.0
30 22:35 SE 11 16.09 Fair CLR 23.1 15.1 61% 76.28 0.0
30 22:15 SE 11 16.09 Fair CLR 23.2 15.2 61% 76.28 0.0
30 21:55 SE 9 16.09 Fair CLR 23.5 15.5 61% 76.28 0.0
30 21:35 SE 9 16.09 Fair CLR 23.8 15.5 60% 76.28 0.0
30 21:15 SE 9 16.09 Fair CLR 24.6 15.4 57% 26 76.28 0.0
30 20:55 SE 11 16.09 Fair CLR 24.8 15.5 56% 26 76.25 0.0
30 20:35 SE 9 16.09 Fair CLR 24.9 15.3 55% 26 76.25 0.0
30 20:15 SE 7 16.09 Fair CLR 25.2 15.5 55% 26 76.23 0.0
30 19:55 SE 9 16.09 Fair CLR 25.7 15.7 54% 26 76.23 0.0
30 19:35 SE 7 16.09 Fair CLR 26 15.8 53% 27 76.23 0.0
30 19:15 S 9 16.09 Fair CLR 27 16.1 51% 27 76.23 0.0
30 18:55 S 11 16.09 Fair CLR 27.9 16.4 32.8 27.9 50% 28 76.23 0.0
30 18:35 S 13 16.09 Fair CLR 28.7 16.2 47% 29 76.23 0.0
30 18:15 S 13 16.09 Fair CLR 30.1 15.5 41% 30 76.23 0.0
30 17:55 S 13 16.09 Fair CLR 31 15.3 39% 31 76.23 0.0
30 17:35 S 19 16.09 Fair CLR 31.5 15.9 39% 31 76.23 0.0
30 17:15 S 15 16.09 Fair CLR 31.9 15.4 37% 32 76.23 0.0
30 16:55 S 17 16.09 Fair CLR 32.2 15.4 36% 32 76.23 0.0
30 16:35 S 15 16.09 Fair CLR 32.4 15.4 36% 32 76.23 0.0
30 16:15 S 19 16.09 Fair CLR 32.5 15.3 35% 32 76.25 0.0
30 15:55 S 19 16.09 Fair CLR 32.5 14.9 34% 32 76.25 0.0
30 15:35 S 17 16.09 Fair CLR 32.3 14.6 34% 32 76.25 0.0
30 15:15 S 19 16.09 Fair CLR 32.4 14.9 35% 32 76.28 0.0
30 14:55 S 15 0.00 NULL NULL 32 15.8 38% 32 76.28 0.0
30 14:35 S 19 16.09 Fair CLR 32.7 15.5 35% 32 76.28 0.0
30 14:15 S 20 16.09 Fair CLR 32.5 14.8 34% 32 76.3 0.0
30 13:55 S 17 16.09 Fair CLR 32.2 14 33% 31 76.3 0.0
30 13:35 S 19 16.09 Fair CLR 31.6 13.6 33% 31 76.33 0.0
30 13:15 S 19 16.09 Fair CLR 31.4 14.2 35% 31 76.35 0.0
30 12:55 S 19 G 26 16.09 Fair CLR 31 14.3 31.2 18 36% 30 76.35 0.0
30 12:35 S 11 G 26 16.09 Fair CLR 30.5 14.9 39% 30 76.38 0.0
30 12:15 SW 20 16.09 Fair CLR 30 15.6 42% 30 76.43 0.0
30 11:55 SW 11 16.09 Fair CLR 29.5 16.1 44% 30 76.43 0.0
30 11:35 SW 20 G 31 16.09 Fair CLR 29.3 15 42% 29 76.43 0.0
30 11:15 SW 15 16.09 Fair CLR 28.9 16.4 47% 29 76.43 0.0
30 10:55 SW 20 16.09 Fair CLR 28.1 16.8 50% 29 76.43 0.0
30 10:35 S 24 G 30 16.09 Fair CLR 27.6 16.8 52% 28 76.4 0.0
30 10:15 S 19 16.09 Fair CLR 27.2 17.1 54% 28 76.38 0.0
30 09:55 S 13 16.09 Fair CLR 26.3 17.6 59% 27 76.35 0.0
30 09:35 S 15 16.09 Fair CLR 25.1 17.5 63% 26 76.38 0.0
30 09:15 S 17 16.09 Fair CLR 24.3 17.8 67% 25 76.38 0.0
30 08:55 S 15 16.09 Fair CLR 22.7 17.8 74% 76.38 0.0
30 08:35 S 13 16.09 Fair CLR 22.7 17.9 74% 76.38 0.0
30 08:15 S 11 16.09 Fair CLR 21.3 17.6 80% 76.38 0.0
30 07:55 S 7 16.09 Fair CLR 20.3 17.7 85% 76.38 0.0
30 07:35 S 9 16.09 Fair CLR 19.3 17.3 88% 76.35 0.0
30 07:15 S 9 16.09 Fair CLR 18 16.7 92% 76.38 0.0
30 06:55 S 11 16.09 Fair CLR 17.8 16.5 19.8 17.1 92% 76.35 0.0
30 06:35 S 9 16.09 Fair CLR 17.2 16.1 93% 76.35 0.0
30 06:15 Calm 16.09 Fair CLR 17.9 16.4 91% 76.35 0.0
30 05:55 S 11 16.09 Fair CLR 18.6 16.5 88% 76.33 0.0
30 05:35 S 11 16.09 Fair CLR 17.5 16.3 93% 76.33 0.0
30 05:15 S 9 16.09 Fair CLR 17.8 16.3 91% 76.33 0.0
30 04:55 S 6 16.09 Fair CLR 18.1 16.5 90% 76.33 0.0
30 04:35 S 11 16.09 Fair CLR 18.5 16.6 89% 76.33 0.0
30 04:15 S 11 16.09 Fair CLR 18.5 16.7 89% 76.35 0.0
30 03:55 S 13 16.09 Fair CLR 18.5 16.7 89% 76.35 0.0
30 03:35 S 7 16.09 Fair CLR 18.2 16.8 92% 76.35 0.0
30 03:15 S 9 16.09 Fair CLR 18.5 17 91% 76.35 0.0
30 02:55 S 11 16.09 Fair CLR 19 17 88% 76.35 0.0
30 02:35 S 9 16.09 Fair CLR 19.3 17.1 87% 76.35 0.0
30 02:15 S 11 16.09 Fair CLR 19.7 17.1 85% 76.35 0.0
30 01:55 S 9 16.09 Fair CLR 19.5 17.1 86% 76.38 0.0
30 01:35 SE 9 16.09 Fair CLR 19.2 16.9 87% 76.38 0.0
30 01:15 S 7 16.09 Fair CLR 18.9 16.6 87% 76.38 0.0
30 00:55 S 9 16.09 Fair CLR 19.1 16.7 24.6 19.1 86% 76.35 0.0
30 00:35 S 9 16.09 Fair CLR 20 16.8 82% 76.38 0.0
30 00:15 S 9 16.09 Fair CLR 20.6 16.7 78% 76.38 0.0
29 23:55 S 9 16.09 Fair CLR 20.6 16.8 79% 76.38 0.0
29 23:35 SE 7 16.09 Fair CLR 21 17 78% 76.4 0.0
29 23:15 SE 9 16.09 Fair CLR 21 17 78% 76.38 0.0
29 22:55 SE 7 16.09 Fair CLR 21 17 78% 76.4 0.0
29 22:35 SE 7 16.09 Fair CLR 21.5 17 76% 76.4 0.0
29 22:15 SE 7 16.09 Fair CLR 21.2 17 77% 76.4 0.0
29 21:55 SE 6 16.09 Fair CLR 21.8 17 74% 76.4 0.0
29 21:35 SE 7 16.09 Fair CLR 22.5 17.1 72% 76.4 0.0
29 21:15 SE 7 16.09 Fair CLR 22.1 17 73% 76.38 0.0
29 20:55 SE 7 16.09 Fair CLR 22.5 17 71% 76.38 0.0
29 20:35 SE 6 16.09 Fair CLR 22.9 17.1 70% 76.35 0.0
29 20:15 SE 7 16.09 Fair CLR 23.1 17 69% 76.33 0.0
29 19:55 SE 6 16.09 Fair CLR 23 17.3 70% 76.33 0.0
29 19:35 S 7 16.09 Fair CLR 23.5 17.3 68% 76.3 0.0
29 19:15 S 9 16.09 Fair CLR 24 17.6 68% 25 76.3 0.0
29 18:55 S 9 16.09 Fair CLR 24.7 18.4 29.5 24.7 68% 26 76.33 0.0
29 18:35 S 6 16.09 Fair CLR 25.6 17.4 61% 27 76.35 0.0
29 18:15 S 7 16.09 Fair CLR 27.2 17.2 54% 28 76.38 0.0
29 17:55 S 7 16.09 Fair CLR 27.5 16.6 51% 28 76.38 0.0
29 17:35 S 11 16.09 Fair CLR 27.6 16.6 51% 28 76.38 0.0
29 17:15 S 13 16.09 Fair CLR 27.9 16 48% 28 76.4 0.0
29 16:55 SW 15 16.09 Fair CLR 29 16.1 46% 29 76.4 0.0
29 16:35 S 11 16.09 Fair CLR 28.1 15.7 47% 28 76.4 0.0
29 16:15 S 17 16.09 Fair CLR 28.5 15.8 46% 29 76.4 0.0
29 15:55 S 11 16.09 Fair CLR 28.7 15.2 44% 29 76.45 0.0
29 15:35 SE 15 16.09 Fair CLR 28.4 14.6 43% 28 76.45 0.0
29 15:15 S 19 16.09 Fair CLR 29.5 15.3 42% 29 76.45 0.0
29 14:55 S 9 16.09 Fair CLR 28.7 15.2 44% 29 76.48 0.0
29 14:35 S 13 16.09 Fair CLR 28.3 15 44% 28 76.5 0.0
29 14:15 S 13 16.09 Fair CLR 28.2 14.7 44% 28 76.53 0.0
29 13:55 S 9 16.09 Fair CLR 28.9 14.9 43% 29 76.53 0.0
29 13:35 S 19 16.09 Fair CLR 28.8 15.4 44% 29 76.53 0.0
29 13:15 S 15 16.09 Fair CLR 28.8 15.5 44% 29 76.56 0.0
29 12:55 S 13 16.09 Fair CLR 28.1 15.4 28.6 17.5 46% 28 76.56 0.0
29 12:35 S 19 16.09 Fair CLR 28.1 15.9 48% 28 76.61 0.0
29 12:15 S 15 16.09 Fair CLR 27.6 16.5 51% 28 76.61 0.0
29 11:55 S 11 16.09 Fair CLR 27.3 16.4 51% 28 76.63 0.0
29 11:35 SE 11 16.09 Fair CLR 27.3 16.7 52% 28 76.66 0.0
29 11:15 S 13 16.09 Fair CLR 26.6 16.6 54% 27 76.66 0.0
29 10:55 SE 13 16.09 Fair CLR 25.7 16.5 57% 27 76.68 0.0
29 10:35 S 13 16.09 Fair CLR 25.5 15.9 55% 26 76.66 0.0
29 10:15 S 17 16.09 Fair CLR 24.7 15.6 57% 26 76.66 0.0
29 09:55 S 15 16.09 Fair CLR 23.7 16.4 64% 76.66 0.0
29 09:35 S 9 16.09 Fair CLR 22.7 16.5 68% 76.66 0.0
29 09:15 S 11 16.09 Fair CLR 22.1 16.4 70% 76.66 0.0
29 08:55 S 7 16.09 Fair CLR 21.5 16.4 73% 76.68 0.0
29 08:35 S 6 16.09 Fair CLR 20.4 16.3 77% 76.68 0.0
29 08:15 Calm 16.09 Fair CLR 19.5 15.6 78% 76.66 0.0
29 07:55 SE 6 16.09 Fair CLR 18.7 15.1 80% 76.66 0.0
29 07:35 Calm 16.09 Fair CLR 18.1 14.8 81% 76.63 0.0
29 07:15 SE 6 16.09 Fair CLR 18 14.6 81% 76.61 0.0
29 06:55 SE 6 16.09 Fair CLR 17.5 14.4 19.1 16.8 82% 76.61 0.0
29 06:35 Calm 16.09 Fair CLR 16.8 14.2 85% 76.61 0.0
29 06:15 Calm 16.09 Fair CLR 17 14.2 84% 76.58 0.0
29 05:55 SE 6 16.09 Fair CLR 17 14.2 84% 76.56 0.0
29 05:35 SE 9 16.09 Fair CLR 17.6 14.3 81% 76.56 0.0
29 05:15 SE 9 16.09 Fair CLR 17.5 14.3 82% 76.58 0.0
29 04:55 SE 6 16.09 Fair CLR 17.3 14.3 83% 76.61 0.0
29 04:35 SE 7 16.09 Fair CLR 17.5 14.4 82% 76.61 0.0
29 04:15 SE 6 16.09 Fair CLR 17.5 14.3 82% 76.58 0.0
29 03:55 SE 9 16.09 Fair CLR 18 14.5 80% 76.58 0.0
29 03:35 SE 9 16.09 Fair CLR 18.1 14.5 80% 76.58 0.0
29 03:15 SE 9 16.09 Fair CLR 18.2 14.5 79% 76.58 0.0
29 02:55 SE 7 16.09 Fair CLR 18.3 14.6 79% 76.58 0.0
29 02:35 SE 7 16.09 Fair CLR 18.5 14.7 79% 76.58 0.0
29 02:15 SE 9 16.09 Fair CLR 18.8 14.7 77% 76.58 0.0
29 01:55 SE 11 16.09 Fair CLR 18.8 15 79% 76.58 0.0
29 01:35 SE 9 16.09 Fair CLR 19 15 78% 76.58 0.0
29 01:15 E 7 16.09 Fair CLR 18.3 15.3 83% 76.61 0.0
29 00:55 E 7 16.09 Fair CLR 18 15.5 25.6 17.8 85% 76.61 0.0
29 00:35 E 6 16.09 Fair CLR 18 15.6 86% 76.61 0.0
29 00:15 Calm 16.09 Fair CLR 18.3 15.6 84% 76.61 0.0
28 23:55 E 6 16.09 Fair CLR 18.3 15.6 84% 76.61 0.0
28 23:35 E 6 16.09 Fair CLR 18.8 15.2 80% 76.58 0.0
28 23:15 E 7 16.09 Fair CLR 19.7 15.2 75% 76.58 0.0
28 22:55 E 9 16.09 Fair CLR 19.6 15.1 75% 76.58 0.0
28 22:35 E 9 16.09 Fair CLR 20 15 73% 76.58 0.0
28 22:15 E 7 16.09 Fair CLR 20.1 14.7 71% 76.58 0.0
28 21:55 E 7 16.09 Fair CLR 20.1 14.5 70% 76.56 0.0
28 21:35 E 7 16.09 Fair CLR 20.7 14.5 68% 76.56 0.0
28 21:15 E 7 16.09 Fair CLR 20.4 14.5 69% 76.56 0.0
28 20:55 Calm 16.09 Fair CLR 20 15 73% 76.53 0.0
28 20:35 Calm 16.09 Fair CLR 20.5 15.4 73% 76.53 0.0
28 20:15 Calm 16.09 Fair CLR 21.3 15.3 69% 76.5 0.0
28 19:55 Calm 16.09 Fair CLR 22.2 15.2 65% 76.5 0.0
28 19:35 Calm 16.09 Fair CLR 23 15 61% 76.48 0.0
28 19:15 E 6 16.09 Fair CLR 25.4 14.3 50% 26 76.48 0.0
28 18:55 Calm 16.09 Fair CLR 25.7 14.3 29.3 25.6 49% 26 76.48 0.0
28 18:35 NE 6 16.09 Fair CLR 26.7 13.2 43% 27 76.5 0.0
28 18:15 E 7 16.09 Partly Cloudy SCT065 28.3 12.4 37% 28 76.5 0.0
28 17:55 E 7 16.09 Mostly Cloudy BKN065 28.7 12.9 38% 28 76.5 0.0
28 17:35 N 7 16.09 Fair CLR 28.4 12.6 38% 28 76.48 0.0
28 17:15 Calm 16.09 Fair CLR 28.3 13.3 40% 28 76.48 0.0
28 16:55 Calm 16.09 Fair CLR 28.5 12.7 38% 28 76.5 0.0
28 16:35 N 6 16.09 Partly Cloudy SCT065 29.1 12.5 36% 28 76.5 0.0
28 16:15 Calm 16.09 Partly Cloudy SCT065 29 12.6 36% 28 76.5 0.0
28 15:55 N 11 16.09 Fair CLR 29.1 13.6 39% 29 76.53 0.0
28 15:35 NE 9 16.09 Partly Cloudy SCT060 28.5 13.8 41% 28 76.53 0.0
28 15:15 N 11 16.09 Fair CLR 28.6 13.6 40% 28 76.56 0.0
28 14:55 NE 11 16.09 Partly Cloudy SCT055 28.3 13.4 40% 28 76.56 0.0
28 14:35 N 15 G 35 16.09 Partly Cloudy SCT055 28.8 14.2 41% 28 76.56 0.0
28 14:15 Calm 16.09 Partly Cloudy SCT065 28.6 13.7 40% 28 76.58 0.0
28 13:55 N 13 16.09 Mostly Cloudy SCT055 BKN065 28.2 14.3 43% 28 76.61 0.0
28 13:35 W 6 16.09 Partly Cloudy SCT055 SCT065 26.6 12.9 43% 27 76.61 0.0
28 13:15 Calm 16.09 Partly Cloudy SCT055 28.3 14.2 42% 28 76.63 0.0
28 12:55 N 13 16.09 Partly Cloudy SCT055 27.8 14.5 27.8 15.8 44% 28 76.63 0.0
28 12:35 Calm 16.09 Partly Cloudy SCT049 SCT060 26.8 14.1 46% 27 76.66 0.0
28 12:15 NW 9 16.09 Partly Cloudy SCT049 SCT060 27.2 14.5 46% 27 76.68 0.0
28 11:55 Calm 16.09 Fair CLR 26.8 14.3 46% 27 76.68 0.0
28 11:35 Calm 16.09 Fair CLR 26.7 14.1 46% 27 76.68 0.0
28 11:15 NW 9 16.09 Fair CLR 26.3 14.9 50% 27 76.68 0.0
28 10:55 Calm 16.09 Fair CLR 26.3 14.5 48% 27 76.68 0.0
28 10:35 N 7 16.09 Fair CLR 25.6 14.9 52% 26 76.66 0.0
28 10:15 N 7 16.09 Fair CLR 25.3 15.1 53% 26 76.66 0.0
28 09:55 N 7 16.09 Fair CLR 24.8 16.4 60% 26 76.63 0.0
28 09:35 N 6 16.09 Fair CLR 24.1 16.2 61% 25 76.63 0.0
28 09:15 N 7 16.09 Fair CLR 23.1 16.8 68% 76.63 0.0
28 08:55 Calm 16.09 Fair CLR 22.7 16.8 69% 76.63 0.0
Date Time (cdt) Wind (kph) Vis. (km) Weather Sky Cond. Air Dwpt Max. Min. Relative Humidity Wind Chill (°C) Heat Index (°C) altimeter (cm) sea level (mb) 1 hr 3 hr 6 hr
6 hour
Temperature (ºC) Pressure Precipitation (cm)